Mayo, Canada
Current Conditions -  °F | °C
As of 2:00 PM on Thursday 23 Oct 2014 (Local Time) from CYMA Reporting Station
Light Snow Light Snow  
Wind Chill: 25°   Ceiling: 2500
Heat Index: 30°   Visibility: 6mi
Dew Point: 27°   Wind: 5mph
Humidity: 86%   Direction: 240°WSW
Pressure: 29.64"   Gusts: NA
Location:  63.6°N, 135.88°W
Report Text: CYMA 232100Z 24004KT 6SM -SN SCT018 OVC025 M01/M03 A2964 RMK SC3SC5 SLP069
Loading
Personal Weather Stations






























Interactive Weather Map
Tropical Storm Tracking
New forecast layout! Learn more

10-Day Weather Forecast

Advertisements
Track Severe Weather on mobile